createdAt,value
2024-02-29T00:00:17.647Z,7.20
2024-02-29T00:02:21.710Z,7.17
2024-02-29T00:04:25.784Z,7.14
2024-02-29T00:06:29.041Z,7.17
2024-02-29T00:08:32.240Z,7.07
2024-02-29T00:10:34.468Z,6.91
2024-02-29T00:12:39.896Z,6.87
2024-02-29T00:14:45.816Z,6.68
2024-02-29T00:16:49.135Z,6.53
2024-02-29T00:18:52.344Z,6.40
2024-02-29T00:20:55.534Z,6.24
2024-02-29T00:22:58.678Z,6.13
2024-02-29T00:25:01.782Z,6.08
2024-02-29T00:27:05.138Z,5.97
2024-02-29T00:29:10.725Z,5.95
2024-02-29T00:31:14.389Z,5.95
2024-02-29T00:33:19.676Z,6.06
2024-02-29T00:35:24.878Z,6.10
2024-02-29T00:37:29.633Z,5.98
2024-02-29T00:39:32.911Z,6.07
2024-02-29T00:41:36.139Z,6.04
2024-02-29T00:43:39.353Z,6.07
2024-02-29T00:45:44.092Z,6.08
2024-02-29T00:47:47.324Z,6.09
2024-02-29T00:49:53.113Z,6.10
2024-02-29T00:51:56.510Z,6.05
2024-02-29T00:53:59.759Z,6.10
2024-02-29T00:56:02.887Z,6.18
2024-02-29T00:58:06.458Z,6.27
2024-02-29T01:00:13.097Z,6.38
2024-02-29T01:02:17.958Z,6.46
2024-02-29T01:04:21.066Z,6.45
2024-02-29T01:06:24.273Z,6.58
2024-02-29T01:08:27.447Z,6.76
2024-02-29T01:10:30.708Z,6.80
2024-02-29T01:12:40.714Z,6.89
2024-02-29T01:14:43.957Z,6.94
2024-02-29T01:16:46.240Z,6.75
2024-02-29T01:18:50.954Z,6.64
2024-02-29T01:20:54.131Z,6.58
2024-02-29T01:22:56.316Z,6.49
2024-02-29T01:24:59.560Z,6.44
2024-02-29T01:27:01.747Z,6.41
2024-02-29T01:29:05.143Z,6.44
2024-02-29T01:31:08.492Z,6.46
2024-02-29T01:33:11.796Z,6.50
2024-02-29T01:35:16.787Z,6.53
2024-02-29T01:37:20.217Z,6.54
2024-02-29T01:39:23.643Z,6.45
2024-02-29T01:41:27.265Z,6.33
2024-02-29T01:43:31.529Z,6.24
2024-02-29T01:45:34.771Z,6.24
2024-02-29T01:47:37.180Z,6.19
2024-02-29T01:49:40.704Z,6.18
2024-02-29T01:51:47.518Z,6.11
2024-02-29T01:53:51.014Z,6.10
2024-02-29T01:55:54.261Z,6.16
2024-02-29T01:57:57.658Z,6.13
2024-02-29T02:00:06.043Z,6.00
2024-02-29T02:02:12.155Z,5.91
2024-02-29T02:04:15.404Z,5.82
2024-02-29T02:06:18.758Z,5.79
2024-02-29T02:08:25.015Z,5.70
2024-02-29T02:10:28.153Z,5.65
2024-02-29T02:12:31.515Z,5.60
2024-02-29T02:14:33.617Z,5.61
2024-02-29T02:16:36.870Z,5.76
2024-02-29T02:18:40.262Z,5.98
2024-02-29T02:20:43.833Z,6.25
2024-02-29T02:22:47.414Z,6.39
2024-02-29T02:24:49.384Z,6.47
2024-02-29T02:26:52.552Z,6.38
2024-02-29T02:28:54.950Z,6.36
2024-02-29T02:30:58.155Z,6.19
2024-02-29T02:33:03.575Z,5.73
2024-02-29T02:35:08.254Z,5.43
2024-02-29T02:37:12.070Z,5.21
2024-02-29T02:39:15.196Z,5.32
2024-02-29T02:41:18.250Z,5.56
2024-02-29T02:43:20.235Z,5.65
2024-02-29T02:45:23.455Z,5.59
2024-02-29T02:47:26.795Z,5.63
2024-02-29T02:49:29.810Z,5.76
2024-02-29T02:51:32.922Z,5.74
2024-02-29T02:53:36.659Z,5.82
2024-02-29T02:55:39.738Z,5.79
2024-02-29T02:57:42.871Z,5.73
2024-02-29T02:59:44.925Z,5.58
2024-02-29T03:01:48.079Z,5.46
2024-02-29T03:03:50.301Z,5.37
2024-02-29T03:05:53.379Z,5.51
2024-02-29T03:07:56.420Z,5.45
2024-02-29T03:10:00.866Z,5.35
2024-02-29T03:12:04.215Z,5.29
2024-02-29T03:14:07.340Z,5.28
2024-02-29T03:16:12.603Z,5.24
2024-02-29T03:18:18.441Z,5.14
2024-02-29T03:20:21.725Z,5.11
2024-02-29T03:22:24.851Z,5.08
2024-02-29T03:24:26.938Z,5.05
2024-02-29T03:26:31.401Z,5.07
2024-02-29T03:28:34.478Z,5.35
2024-02-29T03:30:37.549Z,5.61
2024-02-29T03:32:39.883Z,5.80
2024-02-29T03:34:42.965Z,5.74
2024-02-29T03:36:46.245Z,5.39
2024-02-29T03:38:49.439Z,5.27
2024-02-29T03:40:53.265Z,5.26
2024-02-29T03:42:57.738Z,5.31
2024-02-29T03:45:00.956Z,5.25
2024-02-29T03:47:03.165Z,4.80
2024-02-29T03:49:06.395Z,4.58
2024-02-29T03:51:09.804Z,4.75
2024-02-29T03:53:12.990Z,4.88
2024-02-29T03:55:16.478Z,5.01
2024-02-29T03:57:19.608Z,5.02
2024-02-29T03:59:25.221Z,4.95
2024-02-29T04:01:28.356Z,5.03
2024-02-29T04:03:30.882Z,4.91
2024-02-29T04:05:33.988Z,4.99
2024-02-29T04:07:42.928Z,4.92
2024-02-29T04:09:46.029Z,4.84
2024-02-29T04:11:50.444Z,4.82
2024-02-29T04:13:54.516Z,4.82
2024-02-29T04:15:58.990Z,4.87
2024-02-29T04:18:02.430Z,4.92
2024-02-29T04:20:07.022Z,4.96
2024-02-29T04:22:10.122Z,4.95
2024-02-29T04:24:13.182Z,4.91
2024-02-29T04:26:16.409Z,4.91
2024-02-29T04:28:19.531Z,4.92
2024-02-29T04:30:22.573Z,4.47
2024-02-29T04:32:26.919Z,4.41
2024-02-29T04:34:29.080Z,4.53
2024-02-29T04:36:32.907Z,4.50
2024-02-29T04:38:35.993Z,4.44
2024-02-29T04:40:38.505Z,4.41
2024-02-29T04:42:42.408Z,4.44
2024-02-29T04:44:45.918Z,4.54
2024-02-29T04:46:48.970Z,4.55
2024-02-29T04:48:53.567Z,4.57
2024-02-29T04:50:57.250Z,4.61
2024-02-29T04:52:59.348Z,4.65
2024-02-29T04:55:02.585Z,4.73
2024-02-29T04:57:07.829Z,4.97
2024-02-29T04:59:11.355Z,4.99
2024-02-29T05:01:14.881Z,5.13
2024-02-29T05:03:18.076Z,5.11
2024-02-29T05:05:22.010Z,4.97
2024-02-29T05:07:25.083Z,4.78
2024-02-29T05:09:28.156Z,4.69
2024-02-29T05:11:31.404Z,4.71
2024-02-29T05:13:34.486Z,4.75
2024-02-29T05:15:37.615Z,4.78
2024-02-29T05:17:40.862Z,4.66
2024-02-29T05:19:42.985Z,4.58
2024-02-29T05:21:48.370Z,4.55
2024-02-29T05:23:51.591Z,4.58
2024-02-29T05:25:54.760Z,4.51
2024-02-29T05:27:57.773Z,4.69
2024-02-29T05:30:02.520Z,4.64
2024-02-29T05:32:06.061Z,4.72
2024-02-29T05:34:09.651Z,4.82
2024-02-29T05:36:15.419Z,4.85
2024-02-29T05:38:20.127Z,4.57
2024-02-29T05:40:23.331Z,4.45
2024-02-29T05:42:29.426Z,4.56
2024-02-29T05:44:32.680Z,4.49
2024-02-29T05:46:35.893Z,4.36
2024-02-29T05:48:39.217Z,4.31
2024-02-29T05:50:42.371Z,4.20
2024-02-29T05:52:45.419Z,4.15
2024-02-29T05:54:50.622Z,4.12
2024-02-29T05:56:53.810Z,4.22
2024-02-29T05:58:56.861Z,4.12
2024-02-29T06:01:00.281Z,4.08
2024-02-29T06:03:03.667Z,4.08
2024-02-29T06:05:07.272Z,4.07
2024-02-29T06:07:10.781Z,4.15
2024-02-29T06:09:15.978Z,4.18
2024-02-29T06:11:20.730Z,4.23
2024-02-29T06:13:23.842Z,4.31
2024-02-29T06:15:25.828Z,4.49
2024-02-29T06:17:29.008Z,4.69
2024-02-29T06:19:32.131Z,4.70
2024-02-29T06:21:35.166Z,4.71
2024-02-29T06:23:37.931Z,4.73
2024-02-29T06:25:41.364Z,4.59
2024-02-29T06:27:46.057Z,4.37
2024-02-29T06:29:49.223Z,4.26
2024-02-29T06:31:52.643Z,4.20
2024-02-29T06:33:55.889Z,4.23
2024-02-29T06:35:59.127Z,4.39
2024-02-29T06:38:01.233Z,4.49
2024-02-29T06:40:09.215Z,4.58
2024-02-29T06:42:12.120Z,4.71
2024-02-29T06:44:17.720Z,4.79
2024-02-29T06:46:20.765Z,4.95
2024-02-29T06:48:23.822Z,5.25
2024-02-29T06:50:25.874Z,5.49
2024-02-29T06:52:29.128Z,5.45
2024-02-29T06:54:32.228Z,5.35
2024-02-29T06:56:35.356Z,5.33
2024-02-29T06:58:38.624Z,5.62
2024-02-29T07:00:43.286Z,5.86
2024-02-29T07:02:46.474Z,5.98
2024-02-29T07:04:49.548Z,6.05
2024-02-29T07:06:52.719Z,6.15
2024-02-29T07:08:55.844Z,6.22
2024-02-29T07:11:02.075Z,6.33
2024-02-29T07:13:05.893Z,6.41
2024-02-29T07:15:09.255Z,6.35
2024-02-29T07:17:15.779Z,6.44
2024-02-29T07:19:20.016Z,6.52
2024-02-29T07:21:23.084Z,6.57
2024-02-29T07:23:26.297Z,6.54
2024-02-29T07:25:29.416Z,6.54
2024-02-29T07:27:34.493Z,6.63
2024-02-29T07:29:37.579Z,6.65
2024-02-29T07:31:43.312Z,6.74
2024-02-29T07:33:47.993Z,6.79
2024-02-29T07:35:51.192Z,6.96
2024-02-29T07:37:55.163Z,7.02
2024-02-29T07:40:00.417Z,7.07
2024-02-29T07:42:04.087Z,7.02
2024-02-29T07:44:07.542Z,6.99
2024-02-29T07:46:10.729Z,7.25
2024-02-29T07:48:14.475Z,7.46
2024-02-29T07:50:19.575Z,7.67
2024-02-29T07:52:22.744Z,7.67
2024-02-29T07:54:26.076Z,7.76
2024-02-29T07:56:30.454Z,7.78
2024-02-29T07:58:33.698Z,7.94
2024-02-29T08:00:39.102Z,7.85
2024-02-29T08:02:44.646Z,7.88
2024-02-29T08:04:46.895Z,7.87
2024-02-29T08:06:51.333Z,7.63
2024-02-29T08:08:54.450Z,7.81
2024-02-29T08:10:56.479Z,8.01
2024-02-29T08:12:59.624Z,8.00
2024-02-29T08:15:02.638Z,8.15
2024-02-29T08:17:06.100Z,8.33
2024-02-29T08:19:09.333Z,8.48
2024-02-29T08:21:11.480Z,8.56
2024-02-29T08:23:16.887Z,8.59
2024-02-29T08:25:19.967Z,8.48
2024-02-29T08:27:23.181Z,8.58
2024-02-29T08:29:25.223Z,8.54
2024-02-29T08:31:28.570Z,8.64
2024-02-29T08:33:31.728Z,8.80
2024-02-29T08:35:34.950Z,8.79
2024-02-29T08:37:38.152Z,8.87
2024-02-29T08:39:42.810Z,8.92
2024-02-29T08:41:45.716Z,9.05
2024-02-29T08:43:50.787Z,9.17
2024-02-29T08:45:54.345Z,9.16
2024-02-29T08:47:57.450Z,9.27
2024-02-29T08:50:00.572Z,9.46
2024-02-29T08:52:03.748Z,9.51
2024-02-29T08:54:09.057Z,9.63
2024-02-29T08:56:16.929Z,9.79
2024-02-29T08:58:20.095Z,9.77
2024-02-29T09:00:23.390Z,9.84
2024-02-29T09:02:25.468Z,10.02
2024-02-29T09:04:28.554Z,10.14
2024-02-29T09:06:40.859Z,10.27
2024-02-29T09:08:44.927Z,10.35
2024-02-29T09:10:47.970Z,10.39
2024-02-29T09:12:52.627Z,10.57
2024-02-29T09:14:55.723Z,10.74
2024-02-29T09:16:58.915Z,10.74
2024-02-29T09:19:04.072Z,10.95
2024-02-29T09:21:06.548Z,10.96
2024-02-29T09:23:09.602Z,11.02
2024-02-29T09:25:12.959Z,11.28
2024-02-29T09:27:18.240Z,11.56
2024-02-29T09:29:25.659Z,11.58
2024-02-29T09:31:29.918Z,11.52
2024-02-29T09:33:35.052Z,11.56
2024-02-29T09:35:38.057Z,11.69
2024-02-29T09:37:41.103Z,11.64
2024-02-29T09:39:44.267Z,11.80
2024-02-29T09:42:08.016Z,11.99
2024-02-29T09:44:11.752Z,12.07
2024-02-29T09:46:16.264Z,12.60
2024-02-29T09:48:19.709Z,12.74
2024-02-29T09:50:22.876Z,12.96
2024-02-29T09:52:26.796Z,13.06
2024-02-29T09:54:34.731Z,13.02
2024-02-29T09:56:37.986Z,13.22
2024-02-29T09:58:42.125Z,13.60
2024-02-29T10:00:45.339Z,13.59
2024-02-29T10:02:54.542Z,13.69
2024-02-29T10:04:58.971Z,13.73
2024-02-29T10:07:02.039Z,14.05
2024-02-29T10:09:05.461Z,14.19
2024-02-29T10:11:09.706Z,14.38
2024-02-29T10:13:12.863Z,14.43
2024-02-29T10:15:17.111Z,14.64
2024-02-29T10:17:20.199Z,14.56
2024-02-29T10:19:25.900Z,14.61
2024-02-29T10:21:29.140Z,14.77
2024-02-29T10:23:34.712Z,15.01
2024-02-29T10:25:38.975Z,14.91
2024-02-29T10:27:43.202Z,15.17
2024-02-29T10:29:46.317Z,15.37
2024-02-29T10:31:49.453Z,15.18
2024-02-29T10:33:52.662Z,15.10
2024-02-29T10:35:58.311Z,15.37
2024-02-29T10:38:00.475Z,15.26
2024-02-29T10:40:08.512Z,15.49
2024-02-29T10:42:12.554Z,15.81
2024-02-29T10:44:17.353Z,15.74
2024-02-29T10:46:21.818Z,15.59
2024-02-29T10:48:31.200Z,15.90
2024-02-29T10:50:41.688Z,15.90
2024-02-29T10:52:51.104Z,15.69
2024-02-29T10:54:59.979Z,15.84
2024-02-29T10:57:06.731Z,15.98
2024-02-29T10:59:10.022Z,15.90
2024-02-29T11:01:14.131Z,15.93
2024-02-29T11:03:22.150Z,16.07
2024-02-29T11:05:27.184Z,15.87
2024-02-29T11:07:30.473Z,15.69
2024-02-29T11:09:35.238Z,15.94
2024-02-29T11:11:39.464Z,16.16
2024-02-29T11:13:42.998Z,16.17
2024-02-29T11:15:45.263Z,15.71
2024-02-29T11:17:50.029Z,15.67
2024-02-29T11:19:59.204Z,15.52
2024-02-29T11:22:12.130Z,15.48
2024-02-29T11:24:19.622Z,15.45
2024-02-29T11:26:29.441Z,15.53
2024-02-29T11:28:34.237Z,15.68
2024-02-29T11:30:36.325Z,15.78
2024-02-29T11:32:39.438Z,15.81
2024-02-29T11:34:42.612Z,15.88
2024-02-29T11:36:46.890Z,16.07
2024-02-29T11:38:51.141Z,15.93
2024-02-29T11:40:54.239Z,15.72
2024-02-29T11:43:00.822Z,15.44
2024-02-29T11:45:04.732Z,15.48
2024-02-29T11:47:08.204Z,15.65
2024-02-29T11:49:14.865Z,15.84
2024-02-29T11:51:18.261Z,15.87
2024-02-29T11:53:31.304Z,15.98
2024-02-29T11:55:35.607Z,15.97
2024-02-29T11:57:38.719Z,16.14
2024-02-29T11:59:42.243Z,15.92
2024-02-29T12:01:48.863Z,16.12
2024-02-29T12:03:51.555Z,16.04
2024-02-29T12:05:55.000Z,16.23
2024-02-29T12:07:58.094Z,16.28
2024-02-29T12:10:05.484Z,16.08
2024-02-29T12:12:09.083Z,16.42
2024-02-29T12:14:13.043Z,16.31
2024-02-29T12:16:19.736Z,16.25
2024-02-29T12:18:23.219Z,16.46
2024-02-29T12:20:27.725Z,16.75
2024-02-29T12:22:30.718Z,16.81
2024-02-29T12:24:34.632Z,16.79
2024-02-29T12:26:39.505Z,16.78
2024-02-29T12:28:42.033Z,16.63
2024-02-29T12:30:50.048Z,16.38
2024-02-29T12:32:53.878Z,16.34
2024-02-29T12:34:58.430Z,16.25
2024-02-29T12:37:02.798Z,16.06
2024-02-29T12:39:05.968Z,15.91
2024-02-29T12:41:09.250Z,15.84
2024-02-29T12:43:17.507Z,16.04
2024-02-29T12:45:20.962Z,15.95
2024-02-29T12:47:24.405Z,15.99
2024-02-29T12:49:28.888Z,16.01
2024-02-29T12:51:31.001Z,16.00
2024-02-29T12:53:34.900Z,15.97
2024-02-29T12:55:38.007Z,15.95
2024-02-29T12:57:41.219Z,16.00
2024-02-29T12:59:44.306Z,16.00
2024-02-29T13:01:46.598Z,16.15
2024-02-29T13:03:50.088Z,16.09
2024-02-29T13:05:54.657Z,15.84
2024-02-29T13:07:57.857Z,15.92
2024-02-29T13:10:00.948Z,16.08
2024-02-29T13:12:04.437Z,15.92
2024-02-29T13:14:06.510Z,15.84
2024-02-29T13:16:09.591Z,15.76
2024-02-29T13:18:12.667Z,15.84
2024-02-29T13:20:16.153Z,15.87
2024-02-29T13:22:20.759Z,15.84
2024-02-29T13:24:23.829Z,15.62
2024-02-29T13:26:26.920Z,15.56
2024-02-29T13:28:29.972Z,15.78
2024-02-29T13:30:33.198Z,15.72
2024-02-29T13:32:36.287Z,15.70
2024-02-29T13:34:40.012Z,15.62
2024-02-29T13:36:42.136Z,15.30
2024-02-29T13:38:47.708Z,15.49
2024-02-29T13:40:50.705Z,15.60
2024-02-29T13:42:53.769Z,15.49
2024-02-29T13:44:56.837Z,15.64
2024-02-29T13:47:00.109Z,15.63
2024-02-29T13:49:20.836Z,15.61
2024-02-29T13:51:26.780Z,15.59
2024-02-29T13:53:31.888Z,15.70
2024-02-29T13:55:36.513Z,15.76
2024-02-29T13:57:39.674Z,15.64
2024-02-29T13:59:43.556Z,15.48
2024-02-29T14:01:47.054Z,15.48
2024-02-29T14:03:50.160Z,15.51
2024-02-29T14:05:53.529Z,15.77
2024-02-29T14:07:56.711Z,15.95
2024-02-29T14:09:59.844Z,15.94
2024-02-29T14:12:04.728Z,15.96
2024-02-29T14:14:07.846Z,15.94
2024-02-29T14:16:12.651Z,16.06
2024-02-29T14:18:15.812Z,15.85
2024-02-29T14:20:19.144Z,16.16
2024-02-29T14:22:21.294Z,16.17
2024-02-29T14:24:24.262Z,16.19
2024-02-29T14:26:27.486Z,16.08
2024-02-29T14:28:31.902Z,15.86
2024-02-29T14:30:36.996Z,15.79
2024-02-29T14:32:40.283Z,15.74
2024-02-29T14:34:45.558Z,15.79
2024-02-29T14:36:48.738Z,15.88
2024-02-29T14:38:52.260Z,15.80
2024-02-29T14:40:55.254Z,15.43
2024-02-29T14:42:58.452Z,15.40
2024-02-29T14:45:02.898Z,15.23
2024-02-29T14:47:06.362Z,15.25
2024-02-29T14:49:09.523Z,15.14
2024-02-29T14:51:14.482Z,15.04
2024-02-29T14:53:17.664Z,15.03
2024-02-29T14:55:20.764Z,15.01
2024-02-29T14:57:23.199Z,14.84
2024-02-29T14:59:26.254Z,14.82
2024-02-29T15:01:30.773Z,14.77
2024-02-29T15:03:33.894Z,14.79
2024-02-29T15:05:37.376Z,14.78
2024-02-29T15:07:43.135Z,14.75
2024-02-29T15:09:46.353Z,14.69
2024-02-29T15:11:48.597Z,14.63
2024-02-29T15:13:51.719Z,14.51
2024-02-29T15:15:54.035Z,14.44
2024-02-29T15:17:58.972Z,14.40
2024-02-29T15:20:01.741Z,14.34
2024-02-29T15:22:05.304Z,14.32
2024-02-29T15:24:09.117Z,14.23
2024-02-29T15:26:12.081Z,14.15
2024-02-29T15:28:16.595Z,14.12
2024-02-29T15:30:19.740Z,14.01
2024-02-29T15:32:23.802Z,13.97
2024-02-29T15:34:28.380Z,13.87
2024-02-29T15:36:31.832Z,13.82
2024-02-29T15:38:35.030Z,13.90
2024-02-29T15:40:38.113Z,13.80
2024-02-29T15:42:41.408Z,13.79
2024-02-29T15:44:44.500Z,13.58
2024-02-29T15:46:47.837Z,13.48
2024-02-29T15:48:50.886Z,13.38
2024-02-29T15:50:54.347Z,13.30
2024-02-29T15:52:57.393Z,13.21
2024-02-29T15:55:02.315Z,13.19
2024-02-29T15:57:09.702Z,13.20
2024-02-29T15:59:14.878Z,13.08
2024-02-29T16:01:18.044Z,12.91
2024-02-29T16:03:22.447Z,12.84
2024-02-29T16:05:28.301Z,12.80
2024-02-29T16:07:32.801Z,12.77
2024-02-29T16:09:35.969Z,12.72
2024-02-29T16:11:39.269Z,12.62
2024-02-29T16:13:42.743Z,12.56
2024-02-29T16:15:50.218Z,12.54
2024-02-29T16:17:53.739Z,12.58
2024-02-29T16:19:57.324Z,12.64
2024-02-29T16:22:00.904Z,12.67
2024-02-29T16:24:06.847Z,12.70
2024-02-29T16:26:09.962Z,12.67
2024-02-29T16:28:12.205Z,12.65
2024-02-29T16:30:15.591Z,12.73
2024-02-29T16:32:21.241Z,12.65
2024-02-29T16:34:24.504Z,12.60
2024-02-29T16:36:27.520Z,12.54
2024-02-29T16:38:30.816Z,12.50
2024-02-29T16:40:37.418Z,12.54
2024-02-29T16:42:40.738Z,12.53
2024-02-29T16:44:44.680Z,12.45
2024-02-29T16:46:47.773Z,12.40
2024-02-29T16:48:51.280Z,12.38
2024-02-29T16:50:54.654Z,12.39
2024-02-29T16:52:57.878Z,12.00
2024-02-29T16:55:00.960Z,11.99
2024-02-29T16:57:06.079Z,11.85
2024-02-29T16:59:09.069Z,11.76
2024-02-29T17:01:12.247Z,11.70
2024-02-29T17:03:15.326Z,11.65
2024-02-29T17:05:18.361Z,11.61
2024-02-29T17:07:21.628Z,11.61
2024-02-29T17:09:24.784Z,11.66
2024-02-29T17:11:27.882Z,11.65
2024-02-29T17:13:32.432Z,11.58
2024-02-29T17:15:38.329Z,11.59
2024-02-29T17:17:40.819Z,11.59
2024-02-29T17:19:43.904Z,11.53
2024-02-29T17:21:48.230Z,11.54
2024-02-29T17:23:51.238Z,11.64
2024-02-29T17:25:54.390Z,11.63
2024-02-29T17:27:57.769Z,11.63
2024-02-29T17:30:01.298Z,11.57
2024-02-29T17:32:04.532Z,11.46
2024-02-29T17:34:09.522Z,11.38
2024-02-29T17:36:13.952Z,11.31
2024-02-29T17:38:17.740Z,11.19
2024-02-29T17:40:21.114Z,11.22
2024-02-29T17:42:28.252Z,11.23
2024-02-29T17:44:31.290Z,11.27
2024-02-29T17:46:35.914Z,11.26
2024-02-29T17:48:39.293Z,11.19
2024-02-29T17:50:42.356Z,11.22
2024-02-29T17:52:45.561Z,11.13
2024-02-29T17:54:48.621Z,11.23
2024-02-29T17:56:53.271Z,11.11
2024-02-29T17:58:56.432Z,10.90
2024-02-29T18:01:01.202Z,10.86
2024-02-29T18:03:06.088Z,10.84
2024-02-29T18:05:09.055Z,10.77
2024-02-29T18:07:14.832Z,10.72
2024-02-29T18:09:18.092Z,10.75
2024-02-29T18:11:21.193Z,10.65
2024-02-29T18:13:24.263Z,10.64
2024-02-29T18:15:26.402Z,10.64
2024-02-29T18:17:30.125Z,10.60
2024-02-29T18:19:33.780Z,10.49
2024-02-29T18:21:44.056Z,10.50
2024-02-29T18:23:47.229Z,10.53
2024-02-29T18:25:52.762Z,10.48
2024-02-29T18:27:55.948Z,10.48
2024-02-29T18:29:58.144Z,10.50
2024-02-29T18:32:01.208Z,10.51
2024-02-29T18:34:04.429Z,10.58
2024-02-29T18:36:10.035Z,10.57
2024-02-29T18:38:13.126Z,10.58
2024-02-29T18:40:16.852Z,10.69
2024-02-29T18:42:20.266Z,10.67
2024-02-29T18:44:25.446Z,10.74
2024-02-29T18:46:35.893Z,10.79
2024-02-29T18:48:39.047Z,10.81
2024-02-29T18:50:42.496Z,10.81
2024-02-29T18:52:46.967Z,10.85
2024-02-29T18:54:50.119Z,10.85
2024-02-29T18:56:53.127Z,10.84
2024-02-29T18:58:57.956Z,10.81
2024-02-29T19:01:01.531Z,10.85
2024-02-29T19:03:05.165Z,10.94
2024-02-29T19:05:09.010Z,10.94
2024-02-29T19:07:12.450Z,10.93
2024-02-29T19:09:16.838Z,10.92
2024-02-29T19:11:20.130Z,10.80
2024-02-29T19:13:24.579Z,10.65
2024-02-29T19:15:29.863Z,10.59
2024-02-29T19:17:32.841Z,10.52
2024-02-29T19:19:36.006Z,10.51
2024-02-29T19:21:39.260Z,10.50
2024-02-29T19:23:42.288Z,10.54
2024-02-29T19:25:47.140Z,10.50
2024-02-29T19:27:50.218Z,10.45
2024-02-29T19:29:53.562Z,10.58
2024-02-29T19:31:56.769Z,10.53
2024-02-29T19:33:59.827Z,10.58
2024-02-29T19:36:02.966Z,10.49
2024-02-29T19:38:06.043Z,10.48
2024-02-29T19:40:10.608Z,10.43
2024-02-29T19:42:16.142Z,10.42
2024-02-29T19:44:19.319Z,10.51
2024-02-29T19:46:23.485Z,10.59
2024-02-29T19:48:26.588Z,10.57
2024-02-29T19:50:30.324Z,10.82
2024-02-29T19:52:36.224Z,10.94
2024-02-29T19:54:39.467Z,10.98
2024-02-29T19:56:42.578Z,10.95
2024-02-29T19:58:47.071Z,11.02
2024-02-29T20:00:50.423Z,11.17
2024-02-29T20:02:53.560Z,10.88
2024-02-29T20:04:56.687Z,10.32
2024-02-29T20:06:59.772Z,10.46
2024-02-29T20:09:02.982Z,10.26
2024-02-29T20:11:06.331Z,10.21
2024-02-29T20:13:08.414Z,9.99
2024-02-29T20:15:16.017Z,10.07
2024-02-29T20:17:18.458Z,9.88
2024-02-29T20:19:21.528Z,10.14
2024-02-29T20:21:24.712Z,10.26
2024-02-29T20:23:27.840Z,10.24
2024-02-29T20:25:31.296Z,10.11
2024-02-29T20:27:36.763Z,9.94
2024-02-29T20:29:42.518Z,9.88
2024-02-29T20:31:48.050Z,9.76
2024-02-29T20:33:51.549Z,9.70
2024-02-29T20:35:54.671Z,9.71
2024-02-29T20:37:57.830Z,9.59
2024-02-29T20:40:01.536Z,9.53
2024-02-29T20:42:05.084Z,9.44
2024-02-29T20:44:08.631Z,9.37
2024-02-29T20:46:17.541Z,9.54
2024-02-29T20:48:22.112Z,9.51
2024-02-29T20:50:24.210Z,9.33
2024-02-29T20:52:27.681Z,9.40
2024-02-29T20:54:30.843Z,9.36
2024-02-29T20:56:35.937Z,9.26
2024-02-29T20:58:39.021Z,9.19
2024-02-29T21:00:42.044Z,9.08
2024-02-29T21:02:44.150Z,9.03
2024-02-29T21:04:49.980Z,9.11
2024-02-29T21:06:54.869Z,9.25
2024-02-29T21:08:57.969Z,9.16
2024-02-29T21:11:01.680Z,9.13
2024-02-29T21:13:05.180Z,9.10
2024-02-29T21:15:10.965Z,9.17
2024-02-29T21:17:15.249Z,9.25
2024-02-29T21:19:19.107Z,9.37
2024-02-29T21:21:23.697Z,9.37
2024-02-29T21:23:26.694Z,9.36
2024-02-29T21:25:30.400Z,9.39
2024-02-29T21:27:32.736Z,9.43
2024-02-29T21:29:36.360Z,9.54
2024-02-29T21:31:40.096Z,9.62
2024-02-29T21:33:43.290Z,9.61
2024-02-29T21:35:47.765Z,9.60
2024-02-29T21:37:52.054Z,9.79
2024-02-29T21:39:56.795Z,9.75
2024-02-29T21:41:59.873Z,9.90
2024-02-29T21:44:03.515Z,9.88
2024-02-29T21:46:06.900Z,9.94
2024-02-29T21:48:10.000Z,9.91
2024-02-29T21:50:13.260Z,9.87
2024-02-29T21:52:16.327Z,9.86
2024-02-29T21:54:23.033Z,9.86
2024-02-29T21:56:25.203Z,9.97
2024-02-29T21:58:29.860Z,10.02
2024-02-29T22:00:32.950Z,10.12
2024-02-29T22:02:35.980Z,10.19
2024-02-29T22:04:38.162Z,10.16
2024-02-29T22:06:41.194Z,10.06
2024-02-29T22:08:44.394Z,10.05
2024-02-29T22:10:48.966Z,9.97
2024-02-29T22:12:52.220Z,9.79
2024-02-29T22:14:55.357Z,9.54
2024-02-29T22:16:58.411Z,9.58
2024-02-29T22:19:00.406Z,9.56
2024-02-29T22:21:03.741Z,9.53
2024-02-29T22:23:06.785Z,9.57
2024-02-29T22:25:10.243Z,9.48
2024-02-29T22:27:14.622Z,9.38
2024-02-29T22:29:17.798Z,9.22
2024-02-29T22:31:21.079Z,9.24
2024-02-29T22:33:24.668Z,9.18
2024-02-29T22:39:04.045Z,9.29
2024-02-29T22:41:11.061Z,9.34
2024-02-29T22:43:21.640Z,9.48
2024-02-29T22:45:31.120Z,9.48
2024-02-29T22:47:34.212Z,9.52
2024-02-29T22:49:37.322Z,9.82
2024-02-29T22:51:42.410Z,9.77
2024-02-29T22:53:45.528Z,9.74
2024-02-29T22:55:51.300Z,9.87
2024-02-29T22:59:01.831Z,9.74
2024-02-29T23:01:06.358Z,9.64
2024-02-29T23:03:08.786Z,9.59
2024-02-29T23:05:13.842Z,9.46
2024-02-29T23:07:16.929Z,9.24
2024-02-29T23:09:20.045Z,8.95
2024-02-29T23:11:23.148Z,8.85
2024-02-29T23:13:26.577Z,8.86
2024-02-29T23:15:29.971Z,8.66
2024-02-29T23:17:33.944Z,8.62
2024-02-29T23:19:37.253Z,8.53
2024-02-29T23:21:40.286Z,8.49
2024-02-29T23:23:47.297Z,8.44
2024-02-29T23:25:50.956Z,8.43
2024-02-29T23:27:54.338Z,8.37
2024-02-29T23:29:57.686Z,8.26
2024-02-29T23:32:00.757Z,8.35
2024-02-29T23:34:09.271Z,8.35
2024-02-29T23:36:14.875Z,8.31
2024-02-29T23:38:17.825Z,8.23
2024-02-29T23:40:23.313Z,8.14
2024-02-29T23:42:26.659Z,8.21
2024-02-29T23:44:30.124Z,8.27
2024-02-29T23:46:33.290Z,8.26
2024-02-29T23:48:36.680Z,8.18
2024-02-29T23:50:41.310Z,8.09
2024-02-29T23:52:49.519Z,8.07
2024-02-29T23:54:52.721Z,8.22
2024-02-29T23:56:56.065Z,8.28
2024-02-29T23:58:59.220Z,8.33
